Portada
METAR-TAF:

METAR-TAF

Aeropuertos :

Edremit, Turquía

latitud: 39-33-16N, longitud: 27-00-49E, altitud: 15 m

Observación

El informe se hizo hace 1 hora y 9 minutos, a las 11:50 UTC
Viento 9 kt del este, variando entre este-noreste y este-sureste
Temperatura 14°C
Humedad 41%
Presión 1024 hPa
Visibilidad 10 km o más
sin nubes por debajo de 1500 m y sin presencia de cumulonimbus.

METAR: LTFD 061150Z 10009KT 060V120 CAVOK 14/01 Q1024

Hora: 15:59 (12:59 UTC)

Pronóstico

El informe se hizo hace 2 horas y 19 minutos, a las 10:40 UTC
Pronóstico válido del 06 a las 12 UTC al 06 a las 21 UTC
Viento 8 kt del este
Visibilidad 10 km o más
sin nubes por debajo de 1500 m y sin presencia de cumulonimbus.

TAF: LTFD 061040Z 0612/0621 09008KT CAVOK

Observaciones y pronósticos meteorológicos de más de 4000 aeropuertos (mensajes METAR y TAF).

Los puntos amarillos y rojos representan las estaciones disponibles.

Ponga el ratón en el punto deseado para ver el nombre de la estación.

Haga clic para ver las observaciones y los pronósticos meteorológicos.

Para cambiar el mapa : haga clic en los botones verdes con una cruz de color negro para hacer un zoom, en el botón verde con un guión para alejar o en las flechas verdes para mapas adyacentes.


METAR-TAF: